sensor_id;sensor_type;location;lat;lon;timestamp;temperature;humidity
27114;DHT22;14648;49.730;8.614;2022-12-18T00:01:04;-4.80;55.90
27114;DHT22;14648;49.730;8.614;2022-12-18T00:03:35;-4.80;55.90
27114;DHT22;14648;49.730;8.614;2022-12-18T00:06:01;-4.80;56.00
27114;DHT22;14648;49.730;8.614;2022-12-18T00:08:28;-4.80;55.90
27114;DHT22;14648;49.730;8.614;2022-12-18T00:10:54;-4.80;55.80
27114;DHT22;14648;49.730;8.614;2022-12-18T00:13:20;-4.80;55.70
27114;DHT22;14648;49.730;8.614;2022-12-18T00:15:45;-4.80;55.70
27114;DHT22;14648;49.730;8.614;2022-12-18T00:18:11;-4.70;55.70
27114;DHT22;14648;49.730;8.614;2022-12-18T00:20:38;-4.80;55.60
27114;DHT22;14648;49.730;8.614;2022-12-18T00:23:05;-4.80;55.70
27114;DHT22;14648;49.730;8.614;2022-12-18T00:25:36;-4.80;55.70
27114;DHT22;14648;49.730;8.614;2022-12-18T00:28:03;-4.80;55.60
27114;DHT22;14648;49.730;8.614;2022-12-18T00:30:29;-4.80;55.70
27114;DHT22;14648;49.730;8.614;2022-12-18T00:32:55;-4.80;55.80
27114;DHT22;14648;49.730;8.614;2022-12-18T00:35:21;-4.90;55.70
27114;DHT22;14648;49.730;8.614;2022-12-18T00:37:47;-5.00;55.80
27114;DHT22;14648;49.730;8.614;2022-12-18T00:40:12;-5.00;56.00
27114;DHT22;14648;49.730;8.614;2022-12-18T00:42:38;-4.90;56.10
27114;DHT22;14648;49.730;8.614;2022-12-18T00:45:27;-5.00;56.00
27114;DHT22;14648;49.730;8.614;2022-12-18T00:47:54;-4.90;55.90
27114;DHT22;14648;49.730;8.614;2022-12-18T00:50:21;-4.90;55.70
27114;DHT22;14648;49.730;8.614;2022-12-18T00:52:48;-5.00;55.60
27114;DHT22;14648;49.730;8.614;2022-12-18T00:55:14;-5.10;55.50
27114;DHT22;14648;49.730;8.614;2022-12-18T00:57:40;-5.20;55.50
27114;DHT22;14648;49.730;8.614;2022-12-18T01:00:08;-5.30;55.70
27114;DHT22;14648;49.730;8.614;2022-12-18T01:02:37;-5.40;55.80
27114;DHT22;14648;49.730;8.614;2022-12-18T01:05:03;-5.40;56.00
27114;DHT22;14648;49.730;8.614;2022-12-18T01:07:29;-5.40;56.10
27114;DHT22;14648;49.730;8.614;2022-12-18T01:09:55;-5.40;56.00
27114;DHT22;14648;49.730;8.614;2022-12-18T01:12:20;-5.50;56.00
27114;DHT22;14648;49.730;8.614;2022-12-18T01:14:46;-5.50;56.00
27114;DHT22;14648;49.730;8.614;2022-12-18T01:17:12;-5.50;55.90
27114;DHT22;14648;49.730;8.614;2022-12-18T01:19:37;-5.50;55.70
27114;DHT22;14648;49.730;8.614;2022-12-18T01:22:03;-5.60;55.40
27114;DHT22;14648;49.730;8.614;2022-12-18T01:24:29;-5.70;55.50
27114;DHT22;14648;49.730;8.614;2022-12-18T01:26:54;-5.80;55.60
27114;DHT22;14648;49.730;8.614;2022-12-18T01:29:22;-5.80;55.70
27114;DHT22;14648;49.730;8.614;2022-12-18T01:31:48;-5.80;55.60
27114;DHT22;14648;49.730;8.614;2022-12-18T01:34:14;-5.90;55.70
27114;DHT22;14648;49.730;8.614;2022-12-18T01:36:40;-5.90;55.80
27114;DHT22;14648;49.730;8.614;2022-12-18T01:39:11;-5.90;55.80
27114;DHT22;14648;49.730;8.614;2022-12-18T01:41:38;-5.80;55.60
27114;DHT22;14648;49.730;8.614;2022-12-18T01:44:46;-5.90;55.30
27114;DHT22;14648;49.730;8.614;2022-12-18T01:53:15;-5.70;55.10
27114;DHT22;14648;49.730;8.614;2022-12-18T01:55:49;-5.70;54.90
27114;DHT22;14648;49.730;8.614;2022-12-18T01:58:17;-5.70;54.70
27114;DHT22;14648;49.730;8.614;2022-12-18T02:00:43;-5.70;54.60
27114;DHT22;14648;49.730;8.614;2022-12-18T02:03:10;-5.70;54.60
27114;DHT22;14648;49.730;8.614;2022-12-18T02:08:39;-5.80;54.40
27114;DHT22;14648;49.730;8.614;2022-12-18T02:11:40;-5.80;54.70
27114;DHT22;14648;49.730;8.614;2022-12-18T02:17:22;-5.90;54.50
27114;DHT22;14648;49.730;8.614;2022-12-18T02:20:13;-5.90;54.60
27114;DHT22;14648;49.730;8.614;2022-12-18T02:23:00;-5.90;54.60
27114;DHT22;14648;49.730;8.614;2022-12-18T02:29:15;-5.90;54.40
27114;DHT22;14648;49.730;8.614;2022-12-18T02:31:46;-5.90;54.30
27114;DHT22;14648;49.730;8.614;2022-12-18T02:34:17;-5.90;54.20
27114;DHT22;14648;49.730;8.614;2022-12-18T02:36:45;-5.90;54.00
27114;DHT22;14648;49.730;8.614;2022-12-18T02:39:12;-6.00;53.90
27114;DHT22;14648;49.730;8.614;2022-12-18T02:41:39;-6.10;54.10
27114;DHT22;14648;49.730;8.614;2022-12-18T02:44:13;-6.20;54.40
27114;DHT22;14648;49.730;8.614;2022-12-18T02:46:40;-6.20;54.40
27114;DHT22;14648;49.730;8.614;2022-12-18T02:49:31;-6.10;54.40
27114;DHT22;14648;49.730;8.614;2022-12-18T02:55:59;-6.20;53.90
27114;DHT22;14648;49.730;8.614;2022-12-18T02:59:02;-6.20;54.10
27114;DHT22;14648;49.730;8.614;2022-12-18T03:01:52;-6.20;54.10
27114;DHT22;14648;49.730;8.614;2022-12-18T03:05:02;-6.20;54.00
27114;DHT22;14648;49.730;8.614;2022-12-18T03:07:38;-6.20;53.90
27114;DHT22;14648;49.730;8.614;2022-12-18T03:10:09;-6.20;53.80
27114;DHT22;14648;49.730;8.614;2022-12-18T03:12:45;-6.20;53.70
27114;DHT22;14648;49.730;8.614;2022-12-18T03:15:35;-6.20;53.70
27114;DHT22;14648;49.730;8.614;2022-12-18T03:18:10;-6.30;53.80
27114;DHT22;14648;49.730;8.614;2022-12-18T03:20:43;-6.30;53.80
27114;DHT22;14648;49.730;8.614;2022-12-18T03:23:13;-6.20;53.80
27114;DHT22;14648;49.730;8.614;2022-12-18T03:25:43;-6.20;53.80
27114;DHT22;14648;49.730;8.614;2022-12-18T03:28:14;-6.30;53.70
27114;DHT22;14648;49.730;8.614;2022-12-18T03:30:43;-6.30;53.70
27114;DHT22;14648;49.730;8.614;2022-12-18T03:33:18;-6.30;53.90
27114;DHT22;14648;49.730;8.614;2022-12-18T03:35:55;-6.30;53.80
27114;DHT22;14648;49.730;8.614;2022-12-18T03:38:21;-6.30;53.80
27114;DHT22;14648;49.730;8.614;2022-12-18T03:41:03;-6.30;53.80
27114;DHT22;14648;49.730;8.614;2022-12-18T03:43:55;-6.30;53.80
27114;DHT22;14648;49.730;8.614;2022-12-18T03:46:26;-6.30;53.70
27114;DHT22;14648;49.730;8.614;2022-12-18T03:49:25;-6.30;53.70
27114;DHT22;14648;49.730;8.614;2022-12-18T03:52:11;-6.30;53.60
27114;DHT22;14648;49.730;8.614;2022-12-18T03:54:42;-6.30;53.70
27114;DHT22;14648;49.730;8.614;2022-12-18T03:57:17;-6.40;53.60
27114;DHT22;14648;49.730;8.614;2022-12-18T03:59:46;-6.40;53.60
27114;DHT22;14648;49.730;8.614;2022-12-18T04:02:16;-6.50;53.50
27114;DHT22;14648;49.730;8.614;2022-12-18T04:04:43;-6.50;53.60
27114;DHT22;14648;49.730;8.614;2022-12-18T04:07:10;-6.60;53.80
27114;DHT22;14648;49.730;8.614;2022-12-18T04:09:38;-6.50;53.90
27114;DHT22;14648;49.730;8.614;2022-12-18T04:12:04;-6.50;53.80
27114;DHT22;14648;49.730;8.614;2022-12-18T04:14:30;-6.50;53.70
27114;DHT22;14648;49.730;8.614;2022-12-18T04:17:01;-6.50;53.70
27114;DHT22;14648;49.730;8.614;2022-12-18T04:19:27;-6.50;53.60
27114;DHT22;14648;49.730;8.614;2022-12-18T04:21:53;-6.50;53.60
27114;DHT22;14648;49.730;8.614;2022-12-18T04:24:19;-6.50;53.60
27114;DHT22;14648;49.730;8.614;2022-12-18T04:26:45;-6.50;53.50
27114;DHT22;14648;49.730;8.614;2022-12-18T04:29:10;-6.40;53.50
27114;DHT22;14648;49.730;8.614;2022-12-18T04:31:36;-6.50;53.50
27114;DHT22;14648;49.730;8.614;2022-12-18T04:34:02;-6.50;53.40
27114;DHT22;14648;49.730;8.614;2022-12-18T04:36:28;-6.50;53.40
27114;DHT22;14648;49.730;8.614;2022-12-18T04:38:54;-6.50;53.50
27114;DHT22;14648;49.730;8.614;2022-12-18T04:41:20;-6.50;53.60
27114;DHT22;14648;49.730;8.614;2022-12-18T04:43:45;-6.50;53.60
27114;DHT22;14648;49.730;8.614;2022-12-18T04:46:11;-6.60;53.60
27114;DHT22;14648;49.730;8.614;2022-12-18T04:48:37;-6.60;53.50
27114;DHT22;14648;49.730;8.614;2022-12-18T04:51:04;-6.50;53.60
27114;DHT22;14648;49.730;8.614;2022-12-18T04:53:30;-6.60;53.50
27114;DHT22;14648;49.730;8.614;2022-12-18T04:56:04;-6.60;53.40
27114;DHT22;14648;49.730;8.614;2022-12-18T04:58:31;-6.60;53.30
27114;DHT22;14648;49.730;8.614;2022-12-18T05:00:57;-6.60;53.30
27114;DHT22;14648;49.730;8.614;2022-12-18T05:03:23;-6.60;53.20
27114;DHT22;14648;49.730;8.614;2022-12-18T05:05:52;-6.60;53.30
27114;DHT22;14648;49.730;8.614;2022-12-18T05:08:18;-6.60;53.10
27114;DHT22;14648;49.730;8.614;2022-12-18T05:10:44;-6.70;53.20
27114;DHT22;14648;49.730;8.614;2022-12-18T05:13:10;-6.70;53.30
27114;DHT22;14648;49.730;8.614;2022-12-18T05:15:35;-6.70;53.20
27114;DHT22;14648;49.730;8.614;2022-12-18T05:18:02;-6.70;53.20
27114;DHT22;14648;49.730;8.614;2022-12-18T05:20:29;-6.70;53.20
27114;DHT22;14648;49.730;8.614;2022-12-18T05:22:56;-6.70;53.20
27114;DHT22;14648;49.730;8.614;2022-12-18T05:25:22;-6.80;53.10
27114;DHT22;14648;49.730;8.614;2022-12-18T05:27:48;-6.80;53.10
27114;DHT22;14648;49.730;8.614;2022-12-18T05:30:15;-6.80;53.00
27114;DHT22;14648;49.730;8.614;2022-12-18T05:32:41;-6.90;53.10
27114;DHT22;14648;49.730;8.614;2022-12-18T05:35:09;-6.90;53.10
27114;DHT22;14648;49.730;8.614;2022-12-18T05:37:36;-7.00;53.10
27114;DHT22;14648;49.730;8.614;2022-12-18T05:40:03;-7.00;53.30
27114;DHT22;14648;49.730;8.614;2022-12-18T05:42:30;-7.00;53.30
27114;DHT22;14648;49.730;8.614;2022-12-18T05:44:56;-7.00;53.30
27114;DHT22;14648;49.730;8.614;2022-12-18T05:47:21;-6.90;53.40
27114;DHT22;14648;49.730;8.614;2022-12-18T05:49:47;-6.90;53.40
27114;DHT22;14648;49.730;8.614;2022-12-18T05:52:12;-6.90;53.30
27114;DHT22;14648;49.730;8.614;2022-12-18T05:54:38;-6.80;53.30
27114;DHT22;14648;49.730;8.614;2022-12-18T05:57:04;-6.80;53.20
27114;DHT22;14648;49.730;8.614;2022-12-18T05:59:30;-6.80;53.20
27114;DHT22;14648;49.730;8.614;2022-12-18T06:01:56;-6.80;53.10
27114;DHT22;14648;49.730;8.614;2022-12-18T06:04:21;-6.80;52.90
27114;DHT22;14648;49.730;8.614;2022-12-18T06:06:48;-6.80;52.90
27114;DHT22;14648;49.730;8.614;2022-12-18T06:09:13;-6.90;53.10
27114;DHT22;14648;49.730;8.614;2022-12-18T06:11:39;-6.90;53.20
27114;DHT22;14648;49.730;8.614;2022-12-18T06:14:06;-6.90;53.30
27114;DHT22;14648;49.730;8.614;2022-12-18T06:16:32;-7.00;53.10
27114;DHT22;14648;49.730;8.614;2022-12-18T06:18:59;-7.00;53.30
27114;DHT22;14648;49.730;8.614;2022-12-18T06:21:26;-7.00;53.30
27114;DHT22;14648;49.730;8.614;2022-12-18T06:23:52;-7.10;53.40
27114;DHT22;14648;49.730;8.614;2022-12-18T06:26:18;-7.10;53.60
27114;DHT22;14648;49.730;8.614;2022-12-18T06:28:44;-7.10;53.70
27114;DHT22;14648;49.730;8.614;2022-12-18T06:31:11;-7.10;53.80
27114;DHT22;14648;49.730;8.614;2022-12-18T06:33:36;-7.00;53.80
27114;DHT22;14648;49.730;8.614;2022-12-18T06:36:06;-7.00;53.70
27114;DHT22;14648;49.730;8.614;2022-12-18T06:38:33;-6.90;53.90
27114;DHT22;14648;49.730;8.614;2022-12-18T06:41:00;-6.80;53.80
27114;DHT22;14648;49.730;8.614;2022-12-18T06:43:26;-6.80;53.60
27114;DHT22;14648;49.730;8.614;2022-12-18T06:46:00;-6.80;53.50
27114;DHT22;14648;49.730;8.614;2022-12-18T06:48:27;-6.80;53.60
27114;DHT22;14648;49.730;8.614;2022-12-18T06:50:52;-6.80;53.50
27114;DHT22;14648;49.730;8.614;2022-12-18T06:53:18;-6.80;53.60
27114;DHT22;14648;49.730;8.614;2022-12-18T06:55:43;-6.80;53.50
27114;DHT22;14648;49.730;8.614;2022-12-18T06:58:09;-6.90;53.60
27114;DHT22;14648;49.730;8.614;2022-12-18T07:00:35;-6.90;53.90
27114;DHT22;14648;49.730;8.614;2022-12-18T07:03:00;-6.90;54.00
27114;DHT22;14648;49.730;8.614;2022-12-18T07:05:26;-7.00;53.90
27114;DHT22;14648;49.730;8.614;2022-12-18T07:07:52;-7.00;53.90
27114;DHT22;14648;49.730;8.614;2022-12-18T07:10:18;-7.00;54.20
27114;DHT22;14648;49.730;8.614;2022-12-18T07:12:43;-7.00;54.30
27114;DHT22;14648;49.730;8.614;2022-12-18T07:15:09;-7.00;54.10
27114;DHT22;14648;49.730;8.614;2022-12-18T07:17:35;-7.00;54.10
27114;DHT22;14648;49.730;8.614;2022-12-18T07:20:01;-7.00;54.20
27114;DHT22;14648;49.730;8.614;2022-12-18T07:22:27;-7.00;54.20
27114;DHT22;14648;49.730;8.614;2022-12-18T07:24:52;-6.90;54.30
27114;DHT22;14648;49.730;8.614;2022-12-18T07:27:18;-6.80;54.10
27114;DHT22;14648;49.730;8.614;2022-12-18T07:29:44;-6.80;53.90
27114;DHT22;14648;49.730;8.614;2022-12-18T07:32:10;-6.80;53.80
27114;DHT22;14648;49.730;8.614;2022-12-18T07:34:35;-6.80;54.00
27114;DHT22;14648;49.730;8.614;2022-12-18T07:37:01;-6.80;54.20
27114;DHT22;14648;49.730;8.614;2022-12-18T07:39:27;-6.70;54.30
27114;DHT22;14648;49.730;8.614;2022-12-18T07:41:52;-6.70;54.10
27114;DHT22;14648;49.730;8.614;2022-12-18T07:44:36;-6.70;54.10
27114;DHT22;14648;49.730;8.614;2022-12-18T07:47:03;-6.70;54.10
27114;DHT22;14648;49.730;8.614;2022-12-18T07:49:29;-6.70;54.50
27114;DHT22;14648;49.730;8.614;2022-12-18T07:51:55;-6.80;53.90
27114;DHT22;14648;49.730;8.614;2022-12-18T07:54:22;-6.80;54.20
27114;DHT22;14648;49.730;8.614;2022-12-18T07:56:48;-6.80;54.20
27114;DHT22;14648;49.730;8.614;2022-12-18T07:59:14;-6.80;54.40
27114;DHT22;14648;49.730;8.614;2022-12-18T08:01:40;-6.70;54.50
27114;DHT22;14648;49.730;8.614;2022-12-18T08:04:05;-6.70;54.50
27114;DHT22;14648;49.730;8.614;2022-12-18T08:06:31;-6.60;54.40
27114;DHT22;14648;49.730;8.614;2022-12-18T08:08:57;-6.60;54.20
27114;DHT22;14648;49.730;8.614;2022-12-18T08:11:24;-6.60;54.20
27114;DHT22;14648;49.730;8.614;2022-12-18T08:13:51;-6.50;54.30
27114;DHT22;14648;49.730;8.614;2022-12-18T08:16:18;-6.50;54.10
27114;DHT22;14648;49.730;8.614;2022-12-18T08:18:44;-6.50;54.10
27114;DHT22;14648;49.730;8.614;2022-12-18T08:21:12;-6.50;54.30
27114;DHT22;14648;49.730;8.614;2022-12-18T08:23:38;-6.50;54.30
27114;DHT22;14648;49.730;8.614;2022-12-18T08:26:05;-6.50;54.30
27114;DHT22;14648;49.730;8.614;2022-12-18T08:28:30;-6.40;54.20
27114;DHT22;14648;49.730;8.614;2022-12-18T08:30:56;-6.40;54.20
27114;DHT22;14648;49.730;8.614;2022-12-18T08:33:22;-6.30;54.20
27114;DHT22;14648;49.730;8.614;2022-12-18T08:35:48;-6.30;54.20
27114;DHT22;14648;49.730;8.614;2022-12-18T08:38:13;-6.20;54.20
27114;DHT22;14648;49.730;8.614;2022-12-18T08:40:39;-6.20;54.10
27114;DHT22;14648;49.730;8.614;2022-12-18T08:43:05;-6.10;54.10
27114;DHT22;14648;49.730;8.614;2022-12-18T08:45:49;-6.10;54.10
27114;DHT22;14648;49.730;8.614;2022-12-18T08:48:14;-6.10;54.10
27114;DHT22;14648;49.730;8.614;2022-12-18T08:50:40;-6.10;54.10
27114;DHT22;14648;49.730;8.614;2022-12-18T08:53:06;-6.10;54.10
27114;DHT22;14648;49.730;8.614;2022-12-18T08:55:32;-6.10;54.10
27114;DHT22;14648;49.730;8.614;2022-12-18T08:57:57;-6.10;54.20
27114;DHT22;14648;49.730;8.614;2022-12-18T09:00:23;-6.00;54.20
27114;DHT22;14648;49.730;8.614;2022-12-18T09:02:49;-6.00;54.20
27114;DHT22;14648;49.730;8.614;2022-12-18T09:05:14;-6.00;54.20
27114;DHT22;14648;49.730;8.614;2022-12-18T09:07:40;-6.00;54.20
27114;DHT22;14648;49.730;8.614;2022-12-18T09:10:06;-5.90;54.20
27114;DHT22;14648;49.730;8.614;2022-12-18T09:12:32;-5.90;54.40
27114;DHT22;14648;49.730;8.614;2022-12-18T09:14:58;-6.00;54.30
27114;DHT22;14648;49.730;8.614;2022-12-18T09:17:24;-5.90;54.50
27114;DHT22;14648;49.730;8.614;2022-12-18T09:19:49;-5.90;54.50
27114;DHT22;14648;49.730;8.614;2022-12-18T09:22:15;-5.80;54.40
27114;DHT22;14648;49.730;8.614;2022-12-18T09:24:41;-5.70;54.40
27114;DHT22;14648;49.730;8.614;2022-12-18T09:27:07;-5.70;54.50
27114;DHT22;14648;49.730;8.614;2022-12-18T09:29:33;-5.60;54.50
27114;DHT22;14648;49.730;8.614;2022-12-18T09:31:58;-5.50;54.60
27114;DHT22;14648;49.730;8.614;2022-12-18T09:34:24;-5.50;54.60
27114;DHT22;14648;49.730;8.614;2022-12-18T09:36:51;-5.40;54.50
27114;DHT22;14648;49.730;8.614;2022-12-18T09:39:16;-5.30;54.50
27114;DHT22;14648;49.730;8.614;2022-12-18T09:41:55;-5.20;54.50
27114;DHT22;14648;49.730;8.614;2022-12-18T09:44:47;-5.10;54.40
27114;DHT22;14648;49.730;8.614;2022-12-18T09:47:19;-5.00;54.40
27114;DHT22;14648;49.730;8.614;2022-12-18T09:50:01;-4.90;54.50
27114;DHT22;14648;49.730;8.614;2022-12-18T09:52:45;-4.80;54.50
27114;DHT22;14648;49.730;8.614;2022-12-18T09:55:33;-4.70;54.50
27114;DHT22;14648;49.730;8.614;2022-12-18T09:58:31;-4.60;54.60
27114;DHT22;14648;49.730;8.614;2022-12-18T10:01:01;-4.50;54.70
27114;DHT22;14648;49.730;8.614;2022-12-18T10:03:27;-4.40;54.70
27114;DHT22;14648;49.730;8.614;2022-12-18T10:12:08;-4.10;55.00
27114;DHT22;14648;49.730;8.614;2022-12-18T10:14:52;-3.90;55.00
27114;DHT22;14648;49.730;8.614;2022-12-18T10:17:35;-3.80;55.00
27114;DHT22;14648;49.730;8.614;2022-12-18T10:23:19;-3.50;55.10
27114;DHT22;14648;49.730;8.614;2022-12-18T10:26:10;-3.40;55.00
27114;DHT22;14648;49.730;8.614;2022-12-18T10:28:38;-3.30;55.10
27114;DHT22;14648;49.730;8.614;2022-12-18T10:31:06;-3.20;55.00
27114;DHT22;14648;49.730;8.614;2022-12-18T10:33:38;-3.00;55.10
27114;DHT22;14648;49.730;8.614;2022-12-18T10:36:04;-2.90;55.20
27114;DHT22;14648;49.730;8.614;2022-12-18T10:38:31;-2.80;55.20
27114;DHT22;14648;49.730;8.614;2022-12-18T10:41:03;-2.80;55.30
27114;DHT22;14648;49.730;8.614;2022-12-18T10:43:39;-2.70;55.40
27114;DHT22;14648;49.730;8.614;2022-12-18T10:48:40;-2.50;55.60
27114;DHT22;14648;49.730;8.614;2022-12-18T10:51:20;-2.50;55.60
27114;DHT22;14648;49.730;8.614;2022-12-18T10:54:00;-2.50;55.50
27114;DHT22;14648;49.730;8.614;2022-12-18T10:56:29;-2.50;55.60
27114;DHT22;14648;49.730;8.614;2022-12-18T10:59:22;-2.40;55.60
27114;DHT22;14648;49.730;8.614;2022-12-18T11:01:50;-2.40;55.70
27114;DHT22;14648;49.730;8.614;2022-12-18T11:04:37;-2.40;55.70
27114;DHT22;14648;49.730;8.614;2022-12-18T11:07:15;-2.40;55.60
27114;DHT22;14648;49.730;8.614;2022-12-18T11:09:41;-2.40;55.70
27114;DHT22;14648;49.730;8.614;2022-12-18T11:12:16;-2.30;55.80
27114;DHT22;14648;49.730;8.614;2022-12-18T11:14:49;-2.30;55.90
27114;DHT22;14648;49.730;8.614;2022-12-18T11:17:32;-2.20;55.80
27114;DHT22;14648;49.730;8.614;2022-12-18T11:20:05;-2.20;55.80
27114;DHT22;14648;49.730;8.614;2022-12-18T11:22:36;-2.10;55.90
27114;DHT22;14648;49.730;8.614;2022-12-18T11:25:18;-2.00;55.80
27114;DHT22;14648;49.730;8.614;2022-12-18T11:27:51;-2.00;55.80
27114;DHT22;14648;49.730;8.614;2022-12-18T11:30:30;-2.00;55.80
27114;DHT22;14648;49.730;8.614;2022-12-18T11:33:11;-1.90;55.80
27114;DHT22;14648;49.730;8.614;2022-12-18T11:36:00;-2.00;55.70
27114;DHT22;14648;49.730;8.614;2022-12-18T11:44:19;-1.90;56.10
27114;DHT22;14648;49.730;8.614;2022-12-18T11:47:02;-1.80;55.90
27114;DHT22;14648;49.730;8.614;2022-12-18T11:49:34;-1.80;55.90
27114;DHT22;14648;49.730;8.614;2022-12-18T11:52:11;-1.70;56.00
27114;DHT22;14648;49.730;8.614;2022-12-18T11:54:41;-1.70;56.10
27114;DHT22;14648;49.730;8.614;2022-12-18T11:57:29;-1.70;56.00
27114;DHT22;14648;49.730;8.614;2022-12-18T12:00:18;-1.70;56.10
27114;DHT22;14648;49.730;8.614;2022-12-18T12:15:16;-1.60;56.00
27114;DHT22;14648;49.730;8.614;2022-12-18T12:17:45;-1.60;56.20
27114;DHT22;14648;49.730;8.614;2022-12-18T12:20:49;-1.50;56.30
27114;DHT22;14648;49.730;8.614;2022-12-18T12:26:33;-1.40;56.20
27114;DHT22;14648;49.730;8.614;2022-12-18T12:38:29;-1.30;56.30
27114;DHT22;14648;49.730;8.614;2022-12-18T12:41:00;-1.20;56.20
27114;DHT22;14648;49.730;8.614;2022-12-18T12:43:46;-1.20;56.20
27114;DHT22;14648;49.730;8.614;2022-12-18T12:46:16;-1.20;56.30
27114;DHT22;14648;49.730;8.614;2022-12-18T12:48:47;-1.20;56.30
27114;DHT22;14648;49.730;8.614;2022-12-18T12:51:27;-1.10;56.30
27114;DHT22;14648;49.730;8.614;2022-12-18T12:53:55;-1.10;56.30
27114;DHT22;14648;49.730;8.614;2022-12-18T12:56:26;-1.10;56.40
27114;DHT22;14648;49.730;8.614;2022-12-18T12:59:15;-1.10;56.40
27114;DHT22;14648;49.730;8.614;2022-12-18T13:02:01;-1.00;56.30
27114;DHT22;14648;49.730;8.614;2022-12-18T13:04:34;-1.10;56.40
27114;DHT22;14648;49.730;8.614;2022-12-18T13:07:55;-1.10;56.40
27114;DHT22;14648;49.730;8.614;2022-12-18T13:10:25;-1.10;56.40
27114;DHT22;14648;49.730;8.614;2022-12-18T13:16:03;-1.20;56.30
27114;DHT22;14648;49.730;8.614;2022-12-18T13:18:30;-1.30;56.30
27114;DHT22;14648;49.730;8.614;2022-12-18T13:31:00;-1.40;56.20
27114;DHT22;14648;49.730;8.614;2022-12-18T13:39:15;-1.50;56.30
27114;DHT22;14648;49.730;8.614;2022-12-18T13:42:31;-1.50;56.20
27114;DHT22;14648;49.730;8.614;2022-12-18T13:45:00;-1.50;56.20
27114;DHT22;14648;49.730;8.614;2022-12-18T13:47:35;-1.50;56.10
27114;DHT22;14648;49.730;8.614;2022-12-18T13:50:25;-1.50;56.10
27114;DHT22;14648;49.730;8.614;2022-12-18T13:52:52;-1.50;56.10
27114;DHT22;14648;49.730;8.614;2022-12-18T13:55:19;-1.60;56.00
27114;DHT22;14648;49.730;8.614;2022-12-18T13:57:45;-1.60;56.00
27114;DHT22;14648;49.730;8.614;2022-12-18T14:00:28;-1.60;56.00
27114;DHT22;14648;49.730;8.614;2022-12-18T14:02:56;-1.70;56.10
27114;DHT22;14648;49.730;8.614;2022-12-18T14:05:32;-1.60;56.20
27114;DHT22;14648;49.730;8.614;2022-12-18T14:08:11;-1.60;56.10
27114;DHT22;14648;49.730;8.614;2022-12-18T14:10:44;-1.70;56.10
27114;DHT22;14648;49.730;8.614;2022-12-18T14:13:19;-1.70;56.10
27114;DHT22;14648;49.730;8.614;2022-12-18T14:15:47;-1.70;56.10
27114;DHT22;14648;49.730;8.614;2022-12-18T14:20:46;-1.70;56.20
27114;DHT22;14648;49.730;8.614;2022-12-18T14:25:52;-1.70;56.20
27114;DHT22;14648;49.730;8.614;2022-12-18T14:28:18;-1.70;56.10
27114;DHT22;14648;49.730;8.614;2022-12-18T14:30:45;-1.70;56.10
27114;DHT22;14648;49.730;8.614;2022-12-18T14:36:02;-1.70;56.10
27114;DHT22;14648;49.730;8.614;2022-12-18T14:38:35;-1.70;56.00
27114;DHT22;14648;49.730;8.614;2022-12-18T14:41:05;-1.80;55.80
27114;DHT22;14648;49.730;8.614;2022-12-18T14:43:35;-1.80;55.80
27114;DHT22;14648;49.730;8.614;2022-12-18T14:46:03;-1.80;55.80
27114;DHT22;14648;49.730;8.614;2022-12-18T14:48:37;-1.80;55.90
27114;DHT22;14648;49.730;8.614;2022-12-18T14:53:39;-1.90;55.90
27114;DHT22;14648;49.730;8.614;2022-12-18T14:56:22;-1.90;55.90
27114;DHT22;14648;49.730;8.614;2022-12-18T14:58:58;-1.90;55.80
27114;DHT22;14648;49.730;8.614;2022-12-18T15:01:33;-1.90;55.80
27114;DHT22;14648;49.730;8.614;2022-12-18T15:04:01;-1.90;55.70
27114;DHT22;14648;49.730;8.614;2022-12-18T15:06:34;-2.00;55.70
27114;DHT22;14648;49.730;8.614;2022-12-18T15:09:04;-2.00;55.70
27114;DHT22;14648;49.730;8.614;2022-12-18T15:16:59;-2.10;55.60
27114;DHT22;14648;49.730;8.614;2022-12-18T15:19:45;-2.10;55.70
27114;DHT22;14648;49.730;8.614;2022-12-18T15:22:18;-2.20;55.50
27114;DHT22;14648;49.730;8.614;2022-12-18T15:24:50;-2.20;55.50
27114;DHT22;14648;49.730;8.614;2022-12-18T15:27:26;-2.20;55.40
27114;DHT22;14648;49.730;8.614;2022-12-18T15:32:42;-2.30;55.40
27114;DHT22;14648;49.730;8.614;2022-12-18T15:37:39;-2.40;55.40
27114;DHT22;14648;49.730;8.614;2022-12-18T15:40:11;-2.40;55.40
27114;DHT22;14648;49.730;8.614;2022-12-18T15:42:38;-2.40;55.50
27114;DHT22;14648;49.730;8.614;2022-12-18T15:45:22;-2.40;55.40
27114;DHT22;14648;49.730;8.614;2022-12-18T15:47:47;-2.50;55.50
27114;DHT22;14648;49.730;8.614;2022-12-18T15:50:13;-2.50;55.50
27114;DHT22;14648;49.730;8.614;2022-12-18T15:52:47;-2.50;55.40
27114;DHT22;14648;49.730;8.614;2022-12-18T15:55:20;-2.50;55.40
27114;DHT22;14648;49.730;8.614;2022-12-18T15:58:06;-2.60;55.40
27114;DHT22;14648;49.730;8.614;2022-12-18T16:00:34;-2.60;55.40
27114;DHT22;14648;49.730;8.614;2022-12-18T16:03:01;-2.60;55.30
27114;DHT22;14648;49.730;8.614;2022-12-18T16:05:27;-2.60;55.30
27114;DHT22;14648;49.730;8.614;2022-12-18T16:07:54;-2.60;55.30
27114;DHT22;14648;49.730;8.614;2022-12-18T16:10:20;-2.60;55.20
27114;DHT22;14648;49.730;8.614;2022-12-18T16:12:47;-2.60;55.30
27114;DHT22;14648;49.730;8.614;2022-12-18T16:15:14;-2.60;55.30
27114;DHT22;14648;49.730;8.614;2022-12-18T16:17:41;-2.60;55.30
27114;DHT22;14648;49.730;8.614;2022-12-18T16:20:19;-2.60;55.30
27114;DHT22;14648;49.730;8.614;2022-12-18T16:22:47;-2.60;55.30
27114;DHT22;14648;49.730;8.614;2022-12-18T16:25:27;-2.60;55.40
27114;DHT22;14648;49.730;8.614;2022-12-18T16:27:54;-2.70;55.40
27114;DHT22;14648;49.730;8.614;2022-12-18T16:30:26;-2.60;55.40
27114;DHT22;14648;49.730;8.614;2022-12-18T16:32:54;-2.60;55.40
27114;DHT22;14648;49.730;8.614;2022-12-18T16:35:20;-2.60;55.40
27114;DHT22;14648;49.730;8.614;2022-12-18T16:37:46;-2.60;55.40
27114;DHT22;14648;49.730;8.614;2022-12-18T16:40:14;-2.60;55.40
27114;DHT22;14648;49.730;8.614;2022-12-18T16:42:43;-2.60;55.40
27114;DHT22;14648;49.730;8.614;2022-12-18T16:45:15;-2.60;55.50
27114;DHT22;14648;49.730;8.614;2022-12-18T16:47:42;-2.60;55.50
27114;DHT22;14648;49.730;8.614;2022-12-18T16:50:08;-2.60;55.50
27114;DHT22;14648;49.730;8.614;2022-12-18T16:52:35;-2.60;55.40
27114;DHT22;14648;49.730;8.614;2022-12-18T16:55:01;-2.60;55.50
27114;DHT22;14648;49.730;8.614;2022-12-18T16:57:27;-2.60;55.50
27114;DHT22;14648;49.730;8.614;2022-12-18T16:59:54;-2.70;55.60
27114;DHT22;14648;49.730;8.614;2022-12-18T17:02:22;-2.60;55.60
27114;DHT22;14648;49.730;8.614;2022-12-18T17:04:49;-2.60;55.60
27114;DHT22;14648;49.730;8.614;2022-12-18T17:07:18;-2.60;55.60
27114;DHT22;14648;49.730;8.614;2022-12-18T17:09:44;-2.60;55.50
27114;DHT22;14648;49.730;8.614;2022-12-18T17:12:10;-2.70;55.60
27114;DHT22;14648;49.730;8.614;2022-12-18T17:14:36;-2.70;55.60
27114;DHT22;14648;49.730;8.614;2022-12-18T17:17:02;-2.70;55.70
27114;DHT22;14648;49.730;8.614;2022-12-18T17:19:28;-2.60;55.70
27114;DHT22;14648;49.730;8.614;2022-12-18T17:21:54;-2.70;55.70
27114;DHT22;14648;49.730;8.614;2022-12-18T17:24:20;-2.70;55.70
27114;DHT22;14648;49.730;8.614;2022-12-18T17:26:46;-2.60;55.70
27114;DHT22;14648;49.730;8.614;2022-12-18T17:29:14;-2.60;55.70
27114;DHT22;14648;49.730;8.614;2022-12-18T17:31:41;-2.60;55.70
27114;DHT22;14648;49.730;8.614;2022-12-18T17:34:08;-2.60;55.70